Time;durP1;ratioP1;P1;durP2;ratioP2;P2;SDS_P1;SDS_P2;PMS_P1;PMS_P2;Temp;Humidity;BMP_temperature;BMP_pressure;BME280_temperature;BME280_humidity;BME280_pressure;Samples;Min_cycle;Max_cycle;Signal;HPM_P1;HPM_P2
2023/09/28 00:01:35;;;;;;;3.05;2.10;;;21.50;70.00;;;;;;5011478;28;20133;-77
2023/09/28 00:04:02;;;;;;;2.03;1.83;;;21.50;70.00;;;;;;5011411;28;20081;-78
2023/09/28 00:06:28;;;;;;;3.55;2.10;;;21.50;70.00;;;;;;4994904;28;20503;-78
2023/09/28 00:08:55;;;;;;;3.65;2.30;;;21.50;70.00;;;;;;4979027;28;20045;-77
2023/09/28 00:11:21;;;;;;;2.65;1.92;;;21.50;70.00;;;;;;4979003;28;20030;-78
2023/09/28 00:13:46;;;;;;;2.88;2.03;;;21.50;70.00;;;;;;4978534;28;20085;-76
2023/09/28 00:16:12;;;;;;;2.78;2.00;;;21.50;70.00;;;;;;4995532;28;20038;-78
2023/09/28 00:18:38;;;;;;;1.80;1.70;;;21.50;70.00;;;;;;4994764;28;20030;-77
2023/09/28 00:21:04;;;;;;;2.60;2.10;;;21.50;70.00;;;;;;4994715;28;20046;-78
2023/09/28 00:23:30;;;;;;;2.15;1.85;;;21.50;70.00;;;;;;4995169;28;20030;-78
2023/09/28 00:25:55;;;;;;;2.88;2.05;;;21.40;70.00;;;;;;5010695;28;20046;-77
2023/09/28 00:28:21;;;;;;;2.10;1.80;;;21.40;70.00;;;;;;4994452;28;20035;-77
2023/09/28 00:30:48;;;;;;;2.95;1.90;;;21.40;70.00;;;;;;4978576;28;20034;-78
2023/09/28 00:33:14;;;;;;;3.03;2.00;;;21.40;70.00;;;;;;4963104;28;20026;-78
2023/09/28 00:35:40;;;;;;;2.83;2.08;;;21.40;70.00;;;;;;5010983;28;20034;-77
2023/09/28 00:38:06;;;;;;;2.38;1.90;;;21.40;70.00;;;;;;4994517;28;20031;-77
2023/09/28 00:40:32;;;;;;;2.20;1.70;;;21.40;70.00;;;;;;4994635;28;20121;-77
2023/09/28 00:42:59;;;;;;;2.13;1.70;;;21.40;70.00;;;;;;4994572;28;20121;-77
2023/09/28 00:45:27;;;;;;;2.10;1.80;;;21.40;70.00;;;;;;4978134;28;20049;-78
2023/09/28 00:48:11;;;;;;;2.08;1.88;;;21.30;70.00;;;;;;5010654;28;20451;-78
2023/09/28 00:50:37;;;;;;;2.67;1.90;;;21.40;70.00;;;;;;4995028;28;20097;-77
2023/09/28 00:53:06;;;;;;;2.30;1.90;;;21.40;70.00;;;;;;4994494;28;20762;-77
2023/09/28 00:55:33;;;;;;;1.90;1.63;;;21.30;70.00;;;;;;5011479;28;20026;-78
2023/09/28 00:58:05;;;;;;;1.83;1.60;;;21.30;69.90;;;;;;4994601;28;20027;-78
2023/09/28 01:00:34;;;;;;;2.22;1.92;;;21.30;69.90;;;;;;4994731;28;20034;-77
2023/09/28 01:03:02;;;;;;;2.47;2.05;;;21.30;69.90;;;;;;4995522;28;20109;-77
2023/09/28 01:05:33;;;;;;;2.05;1.80;;;21.30;70.00;;;;;;4995250;28;20081;-77
2023/09/28 01:08:08;;;;;;;1.70;1.60;;;21.30;69.90;;;;;;4981746;28;20034;-78
2023/09/28 01:10:37;;;;;;;2.67;2.08;;;21.30;70.00;;;;;;4997241;28;20136;-78
2023/09/28 01:13:15;;;;;;;2.25;1.90;;;21.30;70.00;;;;;;5014260;28;20473;-78
2023/09/28 01:15:42;;;;;;;2.25;1.75;;;21.30;70.00;;;;;;4997460;28;20030;-77
2023/09/28 01:18:09;;;;;;;1.77;1.50;;;21.30;70.00;;;;;;5014369;28;20030;-77
2023/09/28 01:20:37;;;;;;;2.83;1.83;;;21.20;69.90;;;;;;4980996;28;20038;-77
2023/09/28 01:23:06;;;;;;;2.10;1.75;;;21.20;69.90;;;;;;4997085;28;20026;-77
2023/09/28 01:25:33;;;;;;;2.03;1.83;;;21.20;70.00;;;;;;4981055;28;20037;-79
2023/09/28 01:28:00;;;;;;;2.35;1.77;;;21.20;70.00;;;;;;4981368;28;20178;-78
2023/09/28 01:30:27;;;;;;;1.75;1.60;;;21.20;70.00;;;;;;4996753;28;20030;-78
2023/09/28 01:32:53;;;;;;;2.17;1.77;;;21.20;70.00;;;;;;5013200;28;20117;-77
2023/09/28 01:35:20;;;;;;;2.60;1.75;;;21.20;69.90;;;;;;5014353;28;20030;-78
2023/09/28 01:38:13;;;;;;;2.47;1.73;;;21.20;70.00;;;;;;4996756;28;20456;-77
2023/09/28 01:40:42;;;;;;;2.08;1.70;;;21.20;70.00;;;;;;5012937;28;20467;-78
2023/09/28 01:43:10;;;;;;;2.05;1.65;;;21.20;70.00;;;;;;4996886;28;20060;-77
2023/09/28 01:45:36;;;;;;;2.42;1.80;;;21.10;70.00;;;;;;5012916;28;20038;-77
2023/09/28 01:48:05;;;;;;;2.15;1.90;;;21.10;70.00;;;;;;5014673;28;20062;-78
2023/09/28 01:50:31;;;;;;;2.20;1.80;;;21.10;70.00;;;;;;4980918;28;20034;-77
2023/09/28 01:52:57;;;;;;;2.83;1.90;;;21.10;70.00;;;;;;4996886;28;20426;-78
2023/09/28 01:55:23;;;;;;;1.92;1.73;;;21.10;70.00;;;;;;4980035;28;20030;-77
2023/09/28 01:57:49;;;;;;;2.20;1.77;;;21.10;70.10;;;;;;5014064;28;20033;-77
2023/09/28 02:00:18;;;;;;;3.70;1.52;;;21.10;70.10;;;;;;5012794;28;20125;-77
2023/09/28 02:02:45;;;;;;;2.05;1.77;;;21.00;70.00;;;;;;4996047;28;20038;-78
2023/09/28 02:05:14;;;;;;;2.13;1.73;;;21.00;70.10;;;;;;4980315;28;20030;-78
2023/09/28 02:07:40;;;;;;;1.98;1.63;;;21.00;70.10;;;;;;4980086;28;20072;-79
2023/09/28 02:10:07;;;;;;;2.25;1.80;;;21.00;70.10;;;;;;4980035;28;20041;-80
2023/09/28 02:12:34;;;;;;;2.05;1.85;;;21.00;70.10;;;;;;4981145;28;20073;-75
2023/09/28 02:15:14;;;;;;;1.85;1.73;;;21.00;70.20;;;;;;4963581;28;20479;-77
2023/09/28 02:17:42;;;;;;;2.20;1.88;;;21.00;70.20;;;;;;5013437;28;20069;-76
2023/09/28 02:20:09;;;;;;;2.30;1.70;;;20.90;70.10;;;;;;5012394;28;20057;-79
2023/09/28 02:22:36;;;;;;;1.67;1.58;;;20.90;70.10;;;;;;5013551;28;20038;-78
2023/09/28 02:25:02;;;;;;;2.22;1.60;;;20.90;70.20;;;;;;4996268;28;20165;-78
2023/09/28 02:27:28;;;;;;;2.53;1.75;;;20.90;70.20;;;;;;4995896;28;20479;-77
2023/09/28 02:29:54;;;;;;;2.15;1.60;;;20.90;70.20;;;;;;4963672;28;20057;-78
2023/09/28 02:32:19;;;;;;;2.95;1.90;;;20.90;70.20;;;;;;4963775;28;20113;-78
2023/09/28 02:34:45;;;;;;;2.85;1.80;;;20.90;70.20;;;;;;5012400;28;20057;-77
2023/09/28 02:37:11;;;;;;;2.20;1.80;;;20.90;70.20;;;;;;4996218;28;20139;-77
2023/09/28 02:39:37;;;;;;;2.03;1.73;;;20.90;70.20;;;;;;4980205;28;20378;-78
2023/09/28 02:42:07;;;;;;;2.40;1.80;;;20.90;70.20;;;;;;4979576;28;20037;-78
2023/09/28 02:44:36;;;;;;;2.55;2.00;;;20.80;70.20;;;;;;4996236;28;20044;-77
2023/09/28 02:47:05;;;;;;;1.95;1.60;;;20.80;70.20;;;;;;4996038;28;20042;-78
2023/09/28 02:49:33;;;;;;;3.22;1.63;;;20.80;70.20;;;;;;4979683;28;20125;-77
2023/09/28 02:52:00;;;;;;;2.58;2.03;;;20.80;70.20;;;;;;4979588;28;20038;-78
2023/09/28 02:54:26;;;;;;;3.20;1.80;;;20.80;70.20;;;;;;4980005;28;20030;-77
2023/09/28 02:56:53;;;;;;;2.00;1.80;;;20.80;70.20;;;;;;4995658;28;20077;-77
2023/09/28 02:59:22;;;;;;;1.90;1.60;;;20.80;70.20;;;;;;4979554;28;20042;-78
2023/09/28 03:01:52;;;;;;;2.33;1.80;;;20.70;70.20;;;;;;4995727;28;20092;-77
2023/09/28 03:04:18;;;;;;;1.90;1.70;;;20.70;70.20;;;;;;4996008;28;20088;-77
2023/09/28 03:06:46;;;;;;;1.90;1.67;;;20.70;70.20;;;;;;4979118;28;20077;-78
2023/09/28 03:09:12;;;;;;;2.15;1.67;;;20.70;70.20;;;;;;4996392;28;20084;-78
2023/09/28 03:11:42;;;;;;;1.52;1.40;;;20.70;70.20;;;;;;5013361;28;20030;-77
2023/09/28 03:14:08;;;;;;;1.65;1.40;;;20.70;70.20;;;;;;4996992;28;20040;-78
2023/09/28 03:16:34;;;;;;;1.80;1.58;;;20.70;70.20;;;;;;4999504;28;20033;-78
2023/09/28 03:19:02;;;;;;;1.95;1.60;;;20.70;70.30;;;;;;4983349;28;20048;-78
2023/09/28 03:21:31;;;;;;;1.92;1.50;;;20.70;70.30;;;;;;4983788;28;20038;-77
2023/09/28 03:24:00;;;;;;;1.60;1.50;;;20.60;70.20;;;;;;5015484;28;20026;-77
2023/09/28 03:26:29;;;;;;;2.35;1.90;;;20.60;70.20;;;;;;4983163;28;20030;-78
2023/09/28 03:28:55;;;;;;;1.83;1.65;;;20.60;70.30;;;;;;5015358;28;20041;-78
2023/09/28 03:31:21;;;;;;;2.22;1.63;;;20.60;70.30;;;;;;5000131;28;20041;-77
2023/09/28 03:33:47;;;;;;;1.73;1.63;;;20.60;70.30;;;;;;4982855;28;20467;-77
2023/09/28 03:36:13;;;;;;;2.28;1.70;;;20.60;70.30;;;;;;4999024;28;20042;-78
2023/09/28 03:38:39;;;;;;;2.15;1.70;;;20.50;70.30;;;;;;5015673;28;20033;-77
2023/09/28 03:41:06;;;;;;;1.90;1.60;;;20.60;70.30;;;;;;4983065;28;20037;-77
2023/09/28 03:43:33;;;;;;;1.92;1.70;;;20.50;70.30;;;;;;4982911;28;20125;-77
2023/09/28 03:45:58;;;;;;;1.88;1.60;;;20.50;70.30;;;;;;5014766;28;20040;-78
2023/09/28 03:48:25;;;;;;;2.15;1.73;;;20.50;70.30;;;;;;4998833;28;20044;-77
2023/09/28 03:50:50;;;;;;;1.88;1.52;;;20.50;70.30;;;;;;5015677;28;20037;-77
2023/09/28 03:53:16;;;;;;;2.20;1.63;;;20.50;70.30;;;;;;5016020;28;20562;-77
2023/09/28 03:55:46;;;;;;;2.15;1.60;;;20.50;70.40;;;;;;5016260;28;20030;-77
2023/09/28 03:58:12;;;;;;;1.80;1.50;;;20.50;70.40;;;;;;5014959;28;20092;-78
2023/09/28 04:00:38;;;;;;;1.60;1.50;;;20.40;70.30;;;;;;5015273;28;20429;-78
2023/09/28 04:03:04;;;;;;;3.17;2.03;;;20.40;70.30;;;;;;4982766;28;20040;-78
2023/09/28 04:05:30;;;;;;;1.60;1.50;;;20.50;70.40;;;;;;4998507;28;20482;-77
2023/09/28 04:07:56;;;;;;;2.05;1.60;;;20.50;70.40;;;;;;4966705;28;20154;-77
2023/09/28 04:10:22;;;;;;;1.92;1.58;;;20.40;70.40;;;;;;4999570;28;20113;-78
2023/09/28 04:12:47;;;;;;;2.45;1.92;;;20.40;70.30;;;;;;4982303;28;20026;-78
2023/09/28 04:15:13;;;;;;;2.15;1.73;;;20.40;70.40;;;;;;4982694;28;20497;-78
2023/09/28 04:17:39;;;;;;;1.95;1.75;;;20.40;70.40;;;;;;4998413;28;20474;-77
2023/09/28 04:20:06;;;;;;;2.10;1.73;;;20.40;70.40;;;;;;4982137;28;20045;-78
2023/09/28 04:22:32;;;;;;;2.35;1.73;;;20.40;70.40;;;;;;4982835;28;20026;-78
2023/09/28 04:24:58;;;;;;;2.22;1.90;;;20.40;70.40;;;;;;4998438;28;20106;-77
2023/09/28 04:27:24;;;;;;;1.98;1.63;;;20.40;70.40;;;;;;4997162;28;20064;-77
2023/09/28 04:29:49;;;;;;;1.55;1.40;;;20.40;70.40;;;;;;4981931;28;20045;-78
2023/09/28 04:32:15;;;;;;;1.98;1.77;;;20.40;70.40;;;;;;4997639;28;20446;-77
2023/09/28 04:34:41;;;;;;;2.75;1.95;;;20.40;70.40;;;;;;4981760;28;20046;-77
2023/09/28 04:37:07;;;;;;;2.15;1.70;;;20.30;70.40;;;;;;5014184;28;20040;-77
2023/09/28 04:39:34;;;;;;;2.30;1.70;;;20.30;70.40;;;;;;4965650;28;20030;-77
2023/09/28 04:42:00;;;;;;;2.00;1.80;;;20.40;70.50;;;;;;4981372;28;20038;-78
2023/09/28 04:44:27;;;;;;;2.20;1.65;;;20.30;70.40;;;;;;4997789;28;20026;-78
2023/09/28 04:46:53;;;;;;;2.40;1.98;;;20.30;70.50;;;;;;4997595;28;20042;-77
2023/09/28 04:49:19;;;;;;;1.55;1.45;;;20.30;70.50;;;;;;4997611;28;20467;-78
2023/09/28 04:51:46;;;;;;;2.22;1.80;;;20.30;70.50;;;;;;4997597;28;20063;-77
2023/09/28 04:54:12;;;;;;;2.65;2.00;;;20.30;70.50;;;;;;4997500;28;20057;-77
2023/09/28 04:56:38;;;;;;;2.42;1.90;;;20.30;70.50;;;;;;4997493;28;20038;-77
2023/09/28 04:59:04;;;;;;;2.67;2.00;;;20.30;70.50;;;;;;4981290;28;20034;-77
2023/09/28 05:01:30;;;;;;;1.95;1.75;;;20.30;70.50;;;;;;4965252;28;20120;-77
2023/09/28 05:03:56;;;;;;;1.90;1.60;;;20.20;70.50;;;;;;5013590;28;20034;-77
2023/09/28 05:06:22;;;;;;;2.17;1.80;;;20.20;70.50;;;;;;4980666;28;20093;-78
2023/09/28 05:08:49;;;;;;;2.40;1.90;;;20.20;71.20;;;;;;5013373;28;20044;-77
2023/09/28 05:11:15;;;;;;;3.45;1.95;;;20.20;70.60;;;;;;4981310;28;20037;-77
2023/09/28 05:13:42;;;;;;;2.00;1.60;;;20.20;70.50;;;;;;4997131;28;20033;-78
2023/09/28 05:16:08;;;;;;;2.03;1.65;;;20.20;70.60;;;;;;4998036;28;20105;-77
2023/09/28 05:18:35;;;;;;;2.70;2.05;;;20.20;70.60;;;;;;5014256;28;20435;-77
2023/09/28 05:21:01;;;;;;;1.98;1.73;;;20.20;70.60;;;;;;5013476;28;20040;-78
2023/09/28 05:23:26;;;;;;;2.20;1.65;;;20.10;70.50;;;;;;4981105;28;20033;-78
2023/09/28 05:25:52;;;;;;;2.15;1.70;;;20.10;70.60;;;;;;4980658;28;20486;-77
2023/09/28 05:28:18;;;;;;;2.13;1.80;;;20.10;70.60;;;;;;4997117;28;20034;-78
2023/09/28 05:30:43;;;;;;;2.30;1.75;;;20.10;70.60;;;;;;4965435;28;20463;-77
2023/09/28 05:33:09;;;;;;;3.33;2.20;;;20.10;70.60;;;;;;4964495;28;20115;-77
2023/09/28 05:35:35;;;;;;;2.47;2.08;;;20.10;70.60;;;;;;4980572;28;20026;-78
2023/09/28 05:38:02;;;;;;;2.70;1.90;;;20.10;70.60;;;;;;4980497;28;20498;-77
2023/09/28 05:40:27;;;;;;;2.88;1.80;;;20.10;70.70;;;;;;4980595;28;20038;-78
2023/09/28 05:42:53;;;;;;;2.40;1.85;;;20.10;70.70;;;;;;4996336;28;20048;-77
2023/09/28 05:45:19;;;;;;;2.28;1.67;;;20.10;70.70;;;;;;4996578;28;20030;-78
2023/09/28 05:47:44;;;;;;;2.55;1.85;;;20.10;70.70;;;;;;4997171;28;20112;-77
2023/09/28 05:50:11;;;;;;;2.33;1.70;;;20.00;70.70;;;;;;4965296;28;20105;-77
2023/09/28 05:52:37;;;;;;;3.15;2.13;;;20.00;70.70;;;;;;4964777;28;20034;-77
2023/09/28 05:55:03;;;;;;;2.85;1.77;;;20.00;70.70;;;;;;4980501;28;20541;-78
2023/09/28 05:57:29;;;;;;;2.63;1.92;;;20.00;70.70;;;;;;5012545;28;20038;-77
2023/09/28 05:59:55;;;;;;;2.75;1.98;;;20.00;70.80;;;;;;4996336;28;20133;-79
2023/09/28 06:02:21;;;;;;;2.15;1.70;;;20.00;70.70;;;;;;4995992;28;20566;-78
2023/09/28 06:04:47;;;;;;;2.75;2.00;;;20.00;70.80;;;;;;4996692;28;20037;-77
2023/09/28 06:07:13;;;;;;;4.05;1.90;;;20.00;70.80;;;;;;4996206;28;20057;-78
2023/09/28 06:09:42;;;;;;;2.30;1.83;;;20.00;70.80;;;;;;4996199;28;20030;-78
2023/09/28 06:12:08;;;;;;;2.53;1.90;;;20.00;71.50;;;;;;5012775;28;20030;-77
2023/09/28 06:14:34;;;;;;;2.13;1.77;;;20.00;70.80;;;;;;4996139;28;20395;-78
2023/09/28 06:17:00;;;;;;;3.03;2.20;;;19.90;70.80;;;;;;4997057;28;20042;-77
2023/09/28 06:19:27;;;;;;;2.35;1.90;;;20.00;70.90;;;;;;4980045;28;20038;-80
2023/09/28 06:21:56;;;;;;;2.95;2.30;;;19.90;70.80;;;;;;5013085;28;20161;-78
2023/09/28 06:24:22;;;;;;;2.83;1.92;;;19.90;70.80;;;;;;4996422;28;20391;-81
2023/09/28 06:26:49;;;;;;;3.10;2.22;;;19.90;70.80;;;;;;4995845;28;20038;-78
2023/09/28 06:29:15;;;;;;;2.72;2.13;;;19.90;70.80;;;;;;4979918;28;20111;-78
2023/09/28 06:31:41;;;;;;;2.78;1.95;;;19.90;70.80;;;;;;4995923;28;20118;-77
2023/09/28 06:34:07;;;;;;;3.33;2.22;;;19.90;70.80;;;;;;5013845;28;20112;-78
2023/09/28 06:36:33;;;;;;;3.20;1.75;;;19.90;70.90;;;;;;4995986;28;20044;-84
2023/09/28 06:38:59;;;;;;;2.38;1.80;;;19.90;70.80;;;;;;4996665;28;20026;-77
2023/09/28 06:41:25;;;;;;;2.90;2.10;;;19.90;70.90;;;;;;4996052;28;20037;-77
2023/09/28 06:43:51;;;;;;;2.63;2.03;;;19.90;70.90;;;;;;4996765;28;20030;-78
2023/09/28 06:46:17;;;;;;;4.05;2.10;;;19.80;70.90;;;;;;4995849;28;20496;-78
2023/09/28 06:48:45;;;;;;;3.38;2.10;;;19.80;71.00;;;;;;4979883;28;20088;-78
2023/09/28 06:51:11;;;;;;;2.85;2.13;;;19.80;71.10;;;;;;4999549;28;20038;-78
2023/09/28 06:53:38;;;;;;;2.90;2.30;;;19.70;71.10;;;;;;5000049;28;20033;-78
2023/09/28 06:56:04;;;;;;;3.30;2.15;;;19.70;71.20;;;;;;4999965;28;20049;-78
2023/09/28 06:58:30;;;;;;;2.95;1.98;;;19.70;71.10;;;;;;4983657;28;20029;-79
2023/09/28 07:00:58;;;;;;;3.78;2.28;;;19.70;71.20;;;;;;5000012;28;20121;-78
2023/09/28 07:03:24;;;;;;;3.03;2.13;;;19.70;71.20;;;;;;4984317;28;20398;-78
2023/09/28 07:05:49;;;;;;;2.67;2.15;;;19.70;71.20;;;;;;4999935;28;20046;-80
2023/09/28 07:08:15;;;;;;;2.35;1.80;;;19.70;71.30;;;;;;4983924;28;20045;-79
2023/09/28 07:10:42;;;;;;;3.17;2.00;;;19.70;71.30;;;;;;4967166;28;20030;-79
2023/09/28 07:13:07;;;;;;;2.83;1.98;;;19.70;71.30;;;;;;4983729;28;20030;-79
2023/09/28 07:15:34;;;;;;;3.08;1.95;;;19.70;71.30;;;;;;5002191;28;20461;-79
2023/09/28 07:18:01;;;;;;;4.95;2.30;;;19.70;71.30;;;;;;5002215;28;20530;-80
2023/09/28 07:20:27;;;;;;;2.95;1.80;;;19.70;71.30;;;;;;5018116;28;20085;-80
2023/09/28 07:22:53;;;;;;;3.72;2.15;;;19.70;71.30;;;;;;4984125;28;20037;-80
2023/09/28 07:25:20;;;;;;;3.83;2.13;;;19.60;71.40;;;;;;4999744;28;20038;-79
2023/09/28 07:27:49;;;;;;;2.70;2.00;;;19.70;71.40;;;;;;4999416;28;20479;-79
2023/09/28 07:30:18;;;;;;;3.70;2.05;;;19.70;71.40;;;;;;5015711;28;20121;-79
2023/09/28 07:32:45;;;;;;;3.65;2.22;;;19.70;71.40;;;;;;4999366;28;20418;-79
2023/09/28 07:35:11;;;;;;;3.15;1.85;;;19.70;71.40;;;;;;4999295;28;20030;-79
2023/09/28 07:37:42;;;;;;;3.75;2.08;;;19.70;71.40;;;;;;5015434;28;20087;-79
2023/09/28 07:40:13;;;;;;;3.28;1.75;;;19.60;71.40;;;;;;5015206;28;20030;-79
2023/09/28 07:42:43;;;;;;;4.10;2.00;;;19.70;71.40;;;;;;5014807;28;20038;-79
2023/09/28 07:45:14;;;;;;;3.25;1.85;;;19.70;71.40;;;;;;5015441;28;20160;-79
2023/09/28 07:47:39;;;;;;;3.45;1.88;;;19.70;71.50;;;;;;5015026;28;20034;-80
2023/09/28 07:50:14;;;;;;;3.28;2.10;;;19.70;71.40;;;;;;5014680;28;20375;-79
2023/09/28 07:52:41;;;;;;;4.18;1.90;;;19.70;71.50;;;;;;4983670;28;20038;-79
2023/09/28 07:55:07;;;;;;;3.63;1.90;;;19.70;71.40;;;;;;4999581;28;20034;-80
2023/09/28 07:57:33;;;;;;;3.40;1.90;;;19.70;71.40;;;;;;4998599;28;20164;-80
2023/09/28 08:00:04;;;;;;;3.67;1.90;;;19.70;71.40;;;;;;4998724;28;20057;-79
2023/09/28 08:02:37;;;;;;;3.58;1.83;;;19.70;71.50;;;;;;5014996;28;20501;-80
2023/09/28 08:05:03;;;;;;;4.22;2.08;;;19.70;71.40;;;;;;5015019;28;20037;-80
2023/09/28 08:07:32;;;;;;;3.95;1.95;;;19.70;71.40;;;;;;4998175;28;20046;-80
2023/09/28 08:09:58;;;;;;;4.28;2.00;;;19.70;71.40;;;;;;5015384;28;20029;-79
2023/09/28 08:12:25;;;;;;;5.20;2.10;;;19.70;71.40;;;;;;4982276;28;20038;-80
2023/09/28 08:14:50;;;;;;;5.05;2.10;;;19.80;71.50;;;;;;4982353;28;20378;-83
2023/09/28 08:17:16;;;;;;;3.42;1.60;;;19.70;71.40;;;;;;5014348;28;20072;-80
2023/09/28 08:19:42;;;;;;;3.33;1.55;;;19.70;71.40;;;;;;4998337;28;20048;-80
2023/09/28 08:22:10;;;;;;;3.95;2.13;;;19.70;71.40;;;;;;4997733;28;20038;-79
2023/09/28 08:24:36;;;;;;;3.60;1.88;;;19.70;71.40;;;;;;4981825;28;20040;-79
2023/09/28 08:27:04;;;;;;;4.80;1.88;;;19.70;71.40;;;;;;4981663;28;20124;-79
2023/09/28 08:29:30;;;;;;;4.72;1.88;;;19.80;71.40;;;;;;4981865;28;20025;-79
2023/09/28 08:31:57;;;;;;;3.42;1.77;;;19.80;71.40;;;;;;4982436;28;20415;-79
2023/09/28 08:34:23;;;;;;;4.03;1.88;;;19.80;71.40;;;;;;4982150;28;20026;-79
2023/09/28 08:36:50;;;;;;;4.95;1.83;;;19.80;71.30;;;;;;4981638;28;20042;-79
2023/09/28 08:39:16;;;;;;;4.25;1.75;;;19.80;71.30;;;;;;4981771;28;20119;-79
2023/09/28 08:41:44;;;;;;;2.90;1.63;;;19.90;71.30;;;;;;4981462;28;20029;-79
2023/09/28 08:44:11;;;;;;;3.13;1.58;;;19.90;71.40;;;;;;4997567;28;20475;-79
2023/09/28 08:46:40;;;;;;;4.00;1.70;;;19.90;71.20;;;;;;4997676;28;20049;-79
2023/09/28 08:49:14;;;;;;;2.63;1.42;;;19.90;71.20;;;;;;5013816;28;20092;-79
2023/09/28 08:51:40;;;;;;;3.60;1.42;;;20.00;71.20;;;;;;4997876;28;20040;-79
2023/09/28 08:54:06;;;;;;;3.47;1.70;;;20.00;71.10;;;;;;4981408;28;20045;-79
2023/09/28 08:56:36;;;;;;;3.83;1.80;;;20.00;71.10;;;;;;5014118;28;20045;-80
2023/09/28 08:59:03;;;;;;;3.17;1.60;;;20.10;71.10;;;;;;4997303;28;20105;-79
2023/09/28 09:01:31;;;;;;;4.20;1.90;;;20.10;71.00;;;;;;4981563;28;20038;-80
2023/09/28 09:03:58;;;;;;;3.47;1.55;;;20.10;71.00;;;;;;4981986;28;20037;-79
2023/09/28 09:06:28;;;;;;;4.38;1.90;;;20.20;71.00;;;;;;4980716;28;20212;-79
2023/09/28 09:09:00;;;;;;;2.97;1.60;;;20.20;70.90;;;;;;5015207;28;20547;-79
2023/09/28 09:11:30;;;;;;;3.70;1.83;;;20.20;70.90;;;;;;4997481;28;20385;-80
2023/09/28 09:13:56;;;;;;;3.33;1.48;;;20.30;70.90;;;;;;4997600;28;20034;-80
2023/09/28 09:16:27;;;;;;;3.85;1.60;;;20.30;70.80;;;;;;4997152;28;20124;-80
2023/09/28 09:18:57;;;;;;;4.75;1.92;;;20.40;70.80;;;;;;5014455;28;20026;-78
2023/09/28 09:21:24;;;;;;;4.78;1.67;;;20.40;70.70;;;;;;4980958;28;20479;-80
2023/09/28 09:24:19;;;;;;;3.47;1.75;;;20.40;70.70;;;;;;4996937;28;20029;-80
2023/09/28 09:26:47;;;;;;;3.55;1.55;;;20.50;70.70;;;;;;4978740;28;20069;-78
2023/09/28 09:29:14;;;;;;;3.85;1.65;;;20.60;70.60;;;;;;4996819;28;20483;-79
2023/09/28 09:31:42;;;;;;;4.70;1.60;;;20.60;70.60;;;;;;4996881;28;20030;-79
2023/09/28 09:34:21;;;;;;;3.80;1.73;;;20.60;70.60;;;;;;5014388;28;20116;-79
2023/09/28 09:36:54;;;;;;;4.28;1.80;;;20.70;70.60;;;;;;4997549;28;20041;-79
2023/09/28 09:39:28;;;;;;;3.13;1.40;;;20.70;70.50;;;;;;5013960;28;20114;-79
2023/09/28 09:41:55;;;;;;;4.43;1.83;;;20.80;70.50;;;;;;4997150;28;20057;-90
2023/09/28 09:44:26;;;;;;;3.78;1.45;;;20.80;70.40;;;;;;5014358;28;20084;-78
2023/09/28 09:46:53;;;;;;;3.83;1.70;;;20.80;70.40;;;;;;5012852;28;20107;-86
2023/09/28 09:49:20;;;;;;;4.28;2.10;;;20.90;70.40;;;;;;5014164;28;20096;-79
2023/09/28 09:51:48;;;;;;;3.83;1.73;;;21.00;71.10;;;;;;4981086;28;20541;-79
2023/09/28 09:54:18;;;;;;;3.53;1.75;;;21.00;70.30;;;;;;4996841;28;20353;-79
2023/09/28 09:56:46;;;;;;;4.75;1.60;;;21.00;70.40;;;;;;4996386;28;20046;-79
2023/09/28 09:59:21;;;;;;;4.90;1.73;;;21.10;70.30;;;;;;4996867;28;20103;-79
2023/09/28 10:01:52;;;;;;;4.68;1.60;;;21.10;70.30;;;;;;4981173;28;20107;-85
2023/09/28 10:04:19;;;;;;;3.30;1.50;;;21.20;70.30;;;;;;4980672;28;20056;-79
2023/09/28 10:06:56;;;;;;;4.07;1.63;;;21.20;70.20;;;;;;5009101;28;20143;-79
2023/09/28 10:09:22;;;;;;;4.75;1.50;;;21.30;70.30;;;;;;5009510;28;20061;-79
2023/09/28 10:11:52;;;;;;;4.05;1.90;;;21.30;70.20;;;;;;5009332;28;20529;-79
2023/09/28 10:14:20;;;;;;;5.13;1.60;;;21.30;70.20;;;;;;4993144;28;20041;-79
2023/09/28 10:16:50;;;;;;;3.40;1.50;;;21.40;70.20;;;;;;4993764;28;20049;-79
2023/09/28 10:19:21;;;;;;;4.28;1.77;;;21.40;70.20;;;;;;5009581;28;20037;-79
2023/09/28 10:21:47;;;;;;;3.10;1.45;;;21.40;70.20;;;;;;5009807;28;20030;-79
2023/09/28 10:24:20;;;;;;;4.10;1.40;;;21.50;70.20;;;;;;4993209;28;20034;-79
2023/09/28 10:26:51;;;;;;;3.55;1.70;;;21.50;70.20;;;;;;4978590;28;20093;-80
2023/09/28 10:29:30;;;;;;;3.03;1.35;;;21.60;70.20;;;;;;5010108;28;20036;-78
2023/09/28 10:31:57;;;;;;;3.50;1.50;;;21.60;70.20;;;;;;5010401;28;20387;-78
2023/09/28 10:34:24;;;;;;;3.40;1.42;;;21.70;70.20;;;;;;4977815;28;20454;-79
2023/09/28 10:37:10;;;;;;;3.10;1.42;;;21.70;70.80;;;;;;4994612;28;20042;-79
2023/09/28 10:39:57;;;;;;;3.28;1.60;;;21.70;70.20;;;;;;5009072;28;20066;-79
2023/09/28 10:42:23;;;;;;;4.65;1.70;;;21.80;70.10;;;;;;4992073;28;20045;-79
2023/09/28 10:44:51;;;;;;;4.65;1.52;;;21.80;70.10;;;;;;4960635;28;20403;-79
2023/09/28 10:47:17;;;;;;;4.07;1.83;;;21.90;70.10;;;;;;4976605;28;20046;-79
2023/09/28 10:49:43;;;;;;;3.67;1.63;;;21.90;70.10;;;;;;4976630;28;20046;-79
2023/09/28 10:52:10;;;;;;;3.58;1.52;;;21.90;70.20;;;;;;4993645;28;20069;-79
2023/09/28 10:54:37;;;;;;;4.15;1.77;;;22.00;70.20;;;;;;4993848;28;20118;-79
2023/09/28 10:57:02;;;;;;;4.00;1.65;;;22.00;70.20;;;;;;4992768;28;20037;-79
2023/09/28 10:59:29;;;;;;;3.45;1.50;;;22.10;70.20;;;;;;4944385;28;20483;-79
2023/09/28 11:01:55;;;;;;;4.35;1.52;;;22.10;70.30;;;;;;4977167;28;20039;-79
2023/09/28 11:04:22;;;;;;;3.78;1.67;;;22.20;70.30;;;;;;5008929;28;20027;-79
2023/09/28 11:06:49;;;;;;;4.30;1.67;;;22.20;70.30;;;;;;5005658;28;20054;-79
2023/09/28 11:09:19;;;;;;;3.33;1.55;;;22.20;70.30;;;;;;4996058;28;20470;-79
2023/09/28 11:11:45;;;;;;;2.83;1.60;;;22.20;70.20;;;;;;4996061;28;20034;-79
2023/09/28 11:14:13;;;;;;;4.35;1.80;;;22.30;70.30;;;;;;5011785;28;20041;-79
2023/09/28 11:16:41;;;;;;;4.53;1.63;;;22.30;70.30;;;;;;4995568;28;20022;-79
2023/09/28 11:19:09;;;;;;;4.32;1.75;;;22.30;70.30;;;;;;5012973;28;20029;-79
2023/09/28 11:21:35;;;;;;;4.53;1.70;;;22.30;70.30;;;;;;4995552;28;20030;-79
2023/09/28 11:24:05;;;;;;;3.80;1.35;;;22.40;70.30;;;;;;5012030;28;20039;-86
2023/09/28 11:26:31;;;;;;;4.72;1.48;;;22.40;70.30;;;;;;5012067;28;20592;-79
2023/09/28 11:28:58;;;;;;;4.55;1.83;;;22.40;70.30;;;;;;4996237;28;20120;-79
2023/09/28 11:31:25;;;;;;;4.82;1.90;;;22.50;70.40;;;;;;4979841;28;20550;-79
2023/09/28 11:33:50;;;;;;;3.15;1.48;;;22.50;70.30;;;;;;4995139;28;20136;-82
2023/09/28 11:36:21;;;;;;;3.92;1.45;;;22.50;70.30;;;;;;5013949;28;20057;-79
2023/09/28 11:38:48;;;;;;;4.30;1.50;;;22.50;70.30;;;;;;5015485;28;20029;-79
2023/09/28 11:41:15;;;;;;;4.80;1.90;;;22.60;70.30;;;;;;4982879;28;20041;-81
2023/09/28 11:43:49;;;;;;;3.72;1.73;;;22.60;70.20;;;;;;5015229;28;20034;-79
2023/09/28 11:46:22;;;;;;;3.72;1.60;;;22.60;70.30;;;;;;4998769;28;20447;-79
2023/09/28 11:49:11;;;;;;;2.80;1.50;;;22.70;70.30;;;;;;4999813;28;20443;-79
2023/09/28 11:51:38;;;;;;;1.80;1.20;;;22.70;70.30;;;;;;4998787;28;20117;-80
2023/09/28 11:54:09;;;;;;;2.33;1.27;;;22.70;70.20;;;;;;5014994;28;20044;-80
2023/09/28 11:56:35;;;;;;;5.45;1.67;;;22.80;70.20;;;;;;4999144;28;20132;-81
2023/09/28 11:59:01;;;;;;;4.82;1.88;;;22.80;70.20;;;;;;4998310;28;20117;-81
2023/09/28 12:01:27;;;;;;;4.47;1.60;;;22.80;70.20;;;;;;4998573;28;20033;-82
2023/09/28 12:03:52;;;;;;;3.78;1.27;;;22.80;70.20;;;;;;4982503;28;20037;-81
2023/09/28 12:06:18;;;;;;;3.05;1.50;;;22.80;70.20;;;;;;5016126;28;20061;-82
2023/09/28 12:08:45;;;;;;;3.13;1.40;;;22.90;70.20;;;;;;5014929;28;20065;-81
2023/09/28 12:11:11;;;;;;;2.35;1.40;;;22.90;70.20;;;;;;4998846;28;20036;-81
2023/09/28 12:13:38;;;;;;;3.75;1.48;;;22.90;70.20;;;;;;4998955;28;20034;-81
2023/09/28 12:16:05;;;;;;;4.90;1.73;;;23.00;70.20;;;;;;5015704;28;20080;-82
2023/09/28 12:18:32;;;;;;;2.95;1.30;;;23.00;70.10;;;;;;4998298;28;20080;-82
2023/09/28 12:20:58;;;;;;;3.70;1.40;;;23.00;70.10;;;;;;5014274;28;20030;-80
2023/09/28 12:23:25;;;;;;;3.33;1.67;;;23.00;70.00;;;;;;4998301;28;20086;-81
2023/09/28 12:25:51;;;;;;;3.20;1.60;;;23.00;70.00;;;;;;4998154;28;20049;-79
2023/09/28 12:28:17;;;;;;;4.20;1.95;;;23.10;70.10;;;;;;4981595;28;20030;-88
2023/09/28 12:30:43;;;;;;;3.88;1.65;;;23.10;70.00;;;;;;5014380;28;20145;-78
2023/09/28 12:33:09;;;;;;;2.90;1.30;;;23.10;70.00;;;;;;5015492;28;20101;-78
2023/09/28 12:35:36;;;;;;;3.65;1.70;;;23.10;69.90;;;;;;4997806;28;20038;-78
2023/09/28 12:38:05;;;;;;;3.25;1.52;;;23.20;70.00;;;;;;4981957;28;20042;-77
2023/09/28 12:40:34;;;;;;;3.28;1.50;;;23.20;70.00;;;;;;5014110;28;20062;-78
2023/09/28 12:43:09;;;;;;;4.18;1.60;;;23.20;70.00;;;;;;4997843;28;20499;-78
2023/09/28 12:45:35;;;;;;;3.25;1.45;;;23.30;70.00;;;;;;4998987;28;20045;-78
2023/09/28 12:48:02;;;;;;;2.67;1.20;;;23.30;69.90;;;;;;5013420;28;20049;-78
2023/09/28 12:50:32;;;;;;;2.75;1.50;;;23.30;69.90;;;;;;4981679;28;20092;-78